Time;durP1;ratioP1;P1;durP2;ratioP2;P2;SDS_P1;SDS_P2;PMS_P1;PMS_P2;Temp;Humidity;BMP_temperature;BMP_pressure;BME280_temperature;BME280_humidity;BME280_pressure;Samples;Min_cycle;Max_cycle;Signal;HPM_P1;HPM_P2
2022/04/19 00:00:56;;;;;;;457.08;425.02;;;7.90;99.90;;;;;;5114152;27;20054;-79
2022/04/19 00:03:22;;;;;;;309.55;288.58;;;7.80;99.90;;;;;;5097433;27;20051;-78
2022/04/19 00:05:48;;;;;;;417.92;389.05;;;7.80;99.90;;;;;;5114390;27;20070;-78
2022/04/19 00:08:15;;;;;;;453.88;423.13;;;9.40;99.90;;;;;;5132192;27;20039;-79
2022/04/19 00:10:42;;;;;;;276.58;258.98;;;7.70;99.90;;;;;;5133417;27;20122;-80
2022/04/19 00:13:10;;;;;;;311.30;291.43;;;7.70;99.90;;;;;;5134972;27;20046;-79
2022/04/19 00:15:38;;;;;;;287.17;268.80;;;7.80;99.90;;;;;;5115226;27;20061;-81
2022/04/19 00:18:06;;;;;;;372.92;347.48;;;7.70;99.90;;;;;;5096998;27;20047;-79
2022/04/19 00:20:35;;;;;;;302.00;282.70;;;7.60;99.90;;;;;;5096853;27;20054;-78
2022/04/19 00:23:03;;;;;;;307.80;287.80;;;7.50;99.90;;;;;;5113747;27;20043;-83
2022/04/19 00:25:28;;;;;;;322.60;302.38;;;7.50;99.90;;;;;;5098050;27;20469;-78
2022/04/19 00:27:54;;;;;;;502.30;465.05;;;7.50;99.90;;;;;;5132802;27;20047;-79
2022/04/19 00:30:20;;;;;;;419.02;390.08;;;8.30;99.90;;;;;;5132461;27;20069;-81
2022/04/19 00:32:46;;;;;;;469.33;436.67;;;7.40;99.90;;;;;;5132056;27;20391;-78
2022/04/19 00:35:12;;;;;;;480.38;446.92;;;7.40;99.90;;;;;;5131968;27;20070;-78
2022/04/19 00:37:39;;;;;;;460.40;427.75;;;9.20;1.00;;;;;;5133367;27;20440;-78
2022/04/19 00:40:07;;;;;;;416.63;387.73;;;7.30;1.00;;;;;;5133995;27;20059;-81
2022/04/19 00:42:34;;;;;;;412.35;384.23;;;7.30;1.00;;;;;;5134395;27;20040;-79
2022/04/19 00:45:05;;;;;;;407.02;379.80;;;9.00;1.00;;;;;;5115846;27;20077;-78
2022/04/19 00:47:32;;;;;;;405.73;378.23;;;7.30;1.00;;;;;;5133990;27;20126;-78
2022/04/19 00:50:01;;;;;;;288.90;270.98;;;7.20;1.00;;;;;;5115131;27;20047;-79
2022/04/19 00:52:28;;;;;;;179.82;168.73;;;7.20;1.00;;;;;;5132995;27;20530;-79
2022/04/19 00:54:54;;;;;;;326.30;304.90;;;7.10;1.00;;;;;;5115407;27;20047;-80
2022/04/19 00:57:20;;;;;;;228.93;214.13;;;7.10;1.00;;;;;;5133423;27;20478;-78
2022/04/19 00:59:47;;;;;;;167.45;157.02;;;7.00;1.00;;;;;;5132387;27;20055;-78
2022/04/19 01:02:12;;;;;;;353.17;330.35;;;7.30;1.00;;;;;;5113992;27;20128;-78
2022/04/19 01:04:38;;;;;;;241.95;223.43;;;7.00;1.00;;;;;;5081195;27;20105;-78
2022/04/19 01:07:04;;;;;;;140.95;132.32;;;7.00;1.00;;;;;;5115035;27;20051;-78
2022/04/19 01:09:30;;;;;;;304.75;284.88;;;6.90;1.00;;;;;;5115290;27;20051;-80
2022/04/19 01:14:41;;;;;;;387.33;361.90;;;6.90;1.00;;;;;;5100552;27;20441;-79
2022/04/19 01:17:07;;;;;;;305.10;285.73;;;6.80;1.00;;;;;;5133178;27;20039;-78
2022/04/19 01:19:38;;;;;;;330.67;308.67;;;8.00;1.00;;;;;;5115023;27;20073;-78
2022/04/19 01:22:05;;;;;;;282.42;264.88;;;6.80;1.00;;;;;;5134177;27;20135;-79
2022/04/19 01:24:32;;;;;;;129.68;121.93;;;6.70;1.00;;;;;;5133930;27;20235;-78
2022/04/19 01:26:57;;;;;;;139.75;131.43;;;8.10;1.00;;;;;;5115622;27;20039;-78
2022/04/19 01:29:24;;;;;;;112.05;105.13;;;6.60;1.00;;;;;;5114973;27;20054;-77
2022/04/19 01:31:51;;;;;;;139.15;130.38;;;7.80;1.00;;;;;;5098113;27;20043;-78
2022/04/19 01:34:18;;;;;;;137.52;129.02;;;7.80;1.00;;;;;;5113542;27;20285;-81
2022/04/19 01:36:44;;;;;;;123.57;116.00;;;7.20;1.00;;;;;;5130876;27;20087;-78
2022/04/19 01:39:11;;;;;;;138.70;130.32;;;7.80;1.00;;;;;;5112949;27;20416;-78
2022/04/19 01:41:37;;;;;;;145.70;137.05;;;6.50;1.00;;;;;;5130607;27;20038;-79
2022/04/19 01:44:05;;;;;;;152.02;142.68;;;6.50;1.00;;;;;;5130536;27;20129;-83
2022/04/19 01:46:34;;;;;;;147.63;138.25;;;7.10;1.00;;;;;;5112457;27;20054;-80
2022/04/19 01:49:04;;;;;;;151.15;142.10;;;8.00;1.00;;;;;;5095989;27;20043;-81
2022/04/19 01:51:30;;;;;;;163.57;153.35;;;6.40;1.00;;;;;;5112207;27;20070;-79
2022/04/19 01:53:55;;;;;;;193.73;181.63;;;6.40;1.00;;;;;;5112011;27;20082;-79
2022/04/19 01:56:22;;;;;;;179.18;168.13;;;6.30;1.00;;;;;;5078189;27;20047;-79
2022/04/19 01:58:48;;;;;;;175.40;164.27;;;6.50;1.00;;;;;;5111733;27;20128;-80
2022/04/19 02:01:15;;;;;;;165.73;155.27;;;8.00;1.00;;;;;;5112203;27;20103;-78
2022/04/19 02:03:41;;;;;;;180.57;169.18;;;6.20;1.00;;;;;;5130587;27;20039;-78
2022/04/19 02:06:08;;;;;;;165.93;155.45;;;6.90;1.00;;;;;;5111293;27;20043;-78
2022/04/19 02:08:34;;;;;;;171.95;161.23;;;6.50;1.00;;;;;;5129467;27;20047;-78
2022/04/19 02:11:00;;;;;;;181.00;170.02;;;6.20;1.00;;;;;;5094894;27;20031;-78
2022/04/19 02:13:27;;;;;;;179.25;168.35;;;6.10;1.00;;;;;;5130538;27;20058;-79
2022/04/19 02:15:52;;;;;;;174.73;163.65;;;7.80;1.00;;;;;;5129958;27;20122;-81
2022/04/19 02:18:19;;;;;;;199.00;186.52;;;7.30;1.00;;;;;;5129717;27;20163;-82
2022/04/19 02:20:45;;;;;;;217.63;203.85;;;7.60;1.00;;;;;;5111479;27;20467;-81
2022/04/19 02:23:14;;;;;;;197.93;185.52;;;6.80;1.00;;;;;;5111622;27;20079;-79
2022/04/19 02:25:39;;;;;;;225.73;211.45;;;6.00;1.00;;;;;;5129711;27;20054;-79
2022/04/19 02:28:07;;;;;;;227.15;212.63;;;6.50;1.00;;;;;;5130011;27;20047;-79
2022/04/19 02:30:33;;;;;;;226.82;212.40;;;5.90;1.00;;;;;;5130013;27;20058;-80
2022/04/19 02:33:01;;;;;;;179.65;168.40;;;5.90;1.00;;;;;;5095786;27;20043;-80
2022/04/19 02:35:28;;;;;;;200.13;187.75;;;5.90;1.00;;;;;;5131090;27;20479;-79
2022/04/19 02:37:56;;;;;;;194.27;181.95;;;5.80;1.00;;;;;;5113737;27;20092;-79
2022/04/19 02:40:23;;;;;;;203.77;190.68;;;6.80;1.00;;;;;;5131818;27;20035;-79
2022/04/19 02:42:50;;;;;;;196.15;183.77;;;6.70;1.00;;;;;;5096006;28;20399;-79
2022/04/19 02:45:19;;;;;;;211.45;198.20;;;5.80;1.00;;;;;;5130121;28;20406;-79
2022/04/19 02:47:45;;;;;;;197.13;184.98;;;5.70;1.00;;;;;;5131482;28;20172;-79
2022/04/19 02:50:11;;;;;;;199.85;187.30;;;7.10;1.00;;;;;;5130822;28;20158;-79
2022/04/19 02:52:37;;;;;;;215.15;201.32;;;;;;;;;;5130347;28;20711;-84
2022/04/19 02:55:03;;;;;;;199.85;187.43;;;5.70;1.00;;;;;;5131894;28;20450;-78
2022/04/19 02:57:29;;;;;;;209.45;195.95;;;5.50;1.00;;;;;;5109485;28;20078;-78
2022/04/19 02:59:55;;;;;;;238.98;223.68;;;5.70;1.00;;;;;;5110562;28;20051;-78
2022/04/19 03:02:21;;;;;;;191.93;179.85;;;6.10;1.00;;;;;;5090136;28;20396;-78
2022/04/19 03:04:47;;;;;;;231.02;216.25;;;5.60;1.00;;;;;;5073944;28;20040;-78
2022/04/19 03:07:14;;;;;;;224.80;210.38;;;5.60;1.00;;;;;;5109058;28;20039;-79
2022/04/19 03:09:41;;;;;;;246.80;231.47;;;5.60;1.00;;;;;;5091039;28;20082;-79
2022/04/19 03:12:10;;;;;;;227.07;212.73;;;5.60;1.00;;;;;;5109651;28;20037;-79
2022/04/19 03:14:36;;;;;;;240.27;224.93;;;5.60;1.00;;;;;;5108438;28;20044;-79
2022/04/19 03:17:02;;;;;;;239.45;224.15;;;5.50;1.00;;;;;;5091167;28;20054;-78
2022/04/19 03:19:28;;;;;;;215.77;202.20;;;5.50;1.00;;;;;;5073401;28;20039;-78
2022/04/19 03:21:53;;;;;;;233.32;218.50;;;7.20;1.00;;;;;;5107472;28;20352;-78
2022/04/19 03:29:47;;;;;;;228.82;214.77;;;5.40;1.00;;;;;;5112544;28;20048;-83
2022/04/19 03:32:14;;;;;;;229.20;214.95;;;5.40;1.00;;;;;;5094360;28;20040;-79
2022/04/19 03:34:40;;;;;;;242.70;227.45;;;;;;;;;;5094104;28;20044;-80
2022/04/19 03:37:06;;;;;;;241.00;225.68;;;5.30;1.00;;;;;;5113019;28;20130;-80
2022/04/19 03:39:32;;;;;;;251.82;234.32;;;7.20;1.00;;;;;;5060829;28;20141;-79
2022/04/19 03:41:58;;;;;;;294.15;275.27;;;5.30;1.00;;;;;;5094189;28;20061;-80
2022/04/19 03:44:27;;;;;;;278.35;260.25;;;5.80;1.00;;;;;;5094206;28;20052;-79
2022/04/19 03:47:07;;;;;;;290.17;271.55;;;7.00;1.00;;;;;;5112530;28;20179;-80
2022/04/19 03:49:38;;;;;;;302.52;282.73;;;5.30;1.00;;;;;;5112165;28;20142;-81
2022/04/19 03:52:04;;;;;;;283.85;265.52;;;5.80;1.00;;;;;;5111936;28;20039;-84
2022/04/19 03:54:34;;;;;;;384.25;358.63;;;;;;;;;;5093688;28;20127;-79
2022/04/19 03:57:08;;;;;;;322.40;300.65;;;5.40;1.00;;;;;;5094327;27;20400;-78
2022/04/19 03:59:37;;;;;;;291.55;272.55;;;6.00;1.00;;;;;;5098000;27;20119;-80
2022/04/19 04:02:04;;;;;;;264.02;246.48;;;6.80;1.00;;;;;;5115588;27;20096;-79
2022/04/19 04:04:34;;;;;;;303.05;283.45;;;6.00;1.00;;;;;;5115903;27;20503;-79
2022/04/19 04:07:02;;;;;;;317.38;296.13;;;6.80;1.00;;;;;;5116923;27;20099;-80
2022/04/19 04:09:37;;;;;;;338.42;316.40;;;5.30;1.00;;;;;;5114920;27;20503;-82
2022/04/19 04:12:11;;;;;;;334.05;311.77;;;5.70;1.00;;;;;;5134792;27;20049;-81
2022/04/19 04:14:39;;;;;;;386.98;361.05;;;5.30;1.00;;;;;;5134532;27;20043;-80
2022/04/19 04:17:04;;;;;;;339.20;315.88;;;7.40;1.00;;;;;;5099735;27;20115;-79
2022/04/19 04:19:30;;;;;;;369.95;344.98;;;5.50;1.00;;;;;;5134074;27;20467;-79
2022/04/19 04:21:56;;;;;;;348.83;325.08;;;5.20;1.00;;;;;;5134643;27;20039;-80
2022/04/19 04:24:21;;;;;;;360.55;335.40;;;4.80;1.00;;;;;;5098687;27;20130;-80
2022/04/19 04:26:47;;;;;;;375.95;350.35;;;6.90;1.00;;;;;;5134583;27;20061;-80
2022/04/19 04:29:13;;;;;;;423.27;393.40;;;7.30;1.00;;;;;;5116585;27;20468;-80
2022/04/19 04:31:39;;;;;;;380.35;355.10;;;5.40;1.00;;;;;;5133773;27;20051;-81
2022/04/19 04:34:06;;;;;;;401.23;373.92;;;5.10;1.00;;;;;;5115283;27;20039;-79
2022/04/19 04:36:32;;;;;;;380.58;354.80;;;5.10;1.00;;;;;;5132583;27;20043;-79
2022/04/19 04:38:58;;;;;;;384.00;357.95;;;6.00;1.00;;;;;;5116206;27;20050;-79
2022/04/19 04:41:23;;;;;;;345.45;322.88;;;5.10;1.00;;;;;;5115918;27;20031;-79
2022/04/19 04:43:49;;;;;;;334.35;312.83;;;5.40;1.00;;;;;;5134768;27;20178;-79
2022/04/19 04:51:43;;;;;;;309.08;289.08;;;5.00;1.00;;;;;;5133053;27;20115;-80
2022/04/19 04:54:10;;;;;;;303.50;283.63;;;;;;;;;;5115914;27;20046;-79
2022/04/19 04:56:35;;;;;;;360.90;336.35;;;5.10;1.00;;;;;;5133328;27;20437;-79
2022/04/19 04:59:01;;;;;;;326.77;305.50;;;5.00;1.00;;;;;;5133723;27;20138;-80
2022/04/19 05:01:27;;;;;;;338.27;315.33;;;6.20;1.00;;;;;;5098376;27;20043;-78
2022/04/19 05:03:53;;;;;;;306.63;286.83;;;5.10;1.00;;;;;;5116062;27;20050;-78
2022/04/19 05:06:18;;;;;;;308.05;287.40;;;5.10;1.00;;;;;;5133320;27;20047;-79
2022/04/19 05:08:44;;;;;;;248.02;231.80;;;5.10;1.00;;;;;;5115152;27;20491;-78
2022/04/19 05:11:10;;;;;;;257.95;240.77;;;5.20;1.00;;;;;;5115430;27;20138;-78
2022/04/19 05:13:35;;;;;;;277.90;259.35;;;5.60;1.00;;;;;;5133417;27;20103;-79
2022/04/19 05:16:01;;;;;;;265.98;248.52;;;7.20;1.00;;;;;;5115028;27;20459;-79
2022/04/19 05:18:27;;;;;;;249.15;231.68;;;5.20;1.00;;;;;;5081686;27;20053;-82
2022/04/19 05:20:54;;;;;;;231.82;217.07;;;4.40;1.00;;;;;;5132705;27;20031;-78
2022/04/19 05:23:20;;;;;;;262.08;244.10;;;6.70;1.00;;;;;;5098529;27;20086;-80
2022/04/19 05:25:46;;;;;;;269.15;251.52;;;6.00;1.00;;;;;;5133463;27;20368;-79
2022/04/19 05:28:12;;;;;;;268.52;250.80;;;6.10;1.00;;;;;;5115050;27;20043;-80
2022/04/19 05:30:38;;;;;;;239.65;224.00;;;7.30;1.00;;;;;;5114462;27;20047;-80
2022/04/19 05:33:05;;;;;;;239.60;223.70;;;5.50;1.00;;;;;;5133370;27;20134;-79
2022/04/19 05:35:31;;;;;;;245.45;229.80;;;5.60;1.00;;;;;;5133003;27;20050;-80
2022/04/19 05:37:58;;;;;;;273.52;254.73;;;7.40;1.00;;;;;;5114748;27;20487;-79
2022/04/19 05:40:24;;;;;;;303.65;283.23;;;5.80;1.00;;;;;;5133282;27;20170;-80
2022/04/19 05:42:50;;;;;;;327.27;304.95;;;;;;;;;;5114714;27;20224;-80
2022/04/19 05:45:17;;;;;;;267.75;249.48;;;6.00;1.00;;;;;;5132991;27;20505;-79
2022/04/19 05:47:43;;;;;;;418.40;386.95;;;6.00;1.00;;;;;;5113757;27;20050;-79
2022/04/19 05:50:09;;;;;;;344.08;320.45;;;8.00;1.00;;;;;;5114925;27;20388;-79
2022/04/19 05:52:35;;;;;;;323.27;300.77;;;6.20;1.00;;;;;;5113944;27;20053;-79
2022/04/19 05:55:04;;;;;;;320.02;298.77;;;8.10;1.00;;;;;;5133073;27;20042;-80
2022/04/19 05:57:30;;;;;;;365.40;339.27;;;6.40;1.00;;;;;;5114099;27;20137;-79
2022/04/19 05:59:55;;;;;;;434.75;402.95;;;6.50;1.00;;;;;;5114534;27;20107;-80
2022/04/19 06:05:06;;;;;;;210.68;195.70;;;6.70;1.00;;;;;;5131509;27;20051;-80
2022/04/19 06:07:32;;;;;;;248.00;231.07;;;6.80;1.00;;;;;;5132536;27;20460;-80
2022/04/19 06:09:59;;;;;;;294.73;274.08;;;8.90;1.00;;;;;;5114205;27;20042;-80
2022/04/19 06:12:25;;;;;;;277.87;258.60;;;7.50;1.00;;;;;;5131515;27;20064;-78
2022/04/19 06:14:51;;;;;;;254.57;238.02;;;7.40;1.00;;;;;;5113816;27;20280;-79
2022/04/19 06:17:18;;;;;;;273.23;253.98;;;7.30;1.00;;;;;;5132580;27;20468;-80
2022/04/19 06:19:44;;;;;;;189.43;177.00;;;7.80;1.00;;;;;;5132436;27;20487;-78
2022/04/19 06:22:10;;;;;;;225.50;210.20;;;7.30;1.00;;;;;;5114380;27;20039;-79
2022/04/19 06:24:36;;;;;;;118.30;110.20;;;7.60;1.00;;;;;;5132398;27;20146;-78
2022/04/19 06:27:03;;;;;;;246.23;229.27;;;7.60;1.00;;;;;;5114402;27;20475;-78
2022/04/19 06:29:29;;;;;;;212.80;199.02;;;7.50;1.00;;;;;;5114115;27;20086;-79
2022/04/19 06:31:54;;;;;;;217.52;203.40;;;7.80;1.00;;;;;;5113751;28;20710;-79
2022/04/19 06:34:23;;;;;;;313.85;291.33;;;8.40;1.00;;;;;;5113924;28;20070;-80
2022/04/19 06:36:48;;;;;;;318.67;297.17;;;8.00;1.00;;;;;;5131944;27;20047;-80
2022/04/19 06:39:14;;;;;;;309.45;289.42;;;8.00;1.00;;;;;;5114332;27;20050;-79
2022/04/19 06:41:41;;;;;;;246.63;230.48;;;8.10;1.00;;;;;;5113643;27;20051;-80
2022/04/19 06:44:08;;;;;;;153.32;142.38;;;8.30;1.00;;;;;;5095133;28;20054;-81
2022/04/19 06:46:36;;;;;;;176.37;164.90;;;8.90;1.00;;;;;;5132353;28;20079;-79
2022/04/19 06:49:03;;;;;;;180.93;167.80;;;10.00;1.00;;;;;;5132049;28;20049;-81
2022/04/19 06:51:32;;;;;;;236.80;221.98;;;8.60;1.00;;;;;;5132041;28;20039;-81
2022/04/19 06:53:58;;;;;;;143.07;133.02;;;9.90;1.00;;;;;;5079331;28;20055;-79
2022/04/19 06:56:24;;;;;;;102.68;95.43;;;8.90;1.00;;;;;;5114143;28;20050;-80
2022/04/19 06:58:50;;;;;;;124.75;116.03;;;9.60;1.00;;;;;;5113797;27;20503;-79
2022/04/19 07:01:16;;;;;;;255.50;239.00;;;9.10;1.00;;;;;;5117890;27;20054;-81
2022/04/19 07:03:42;;;;;;;144.68;134.95;;;9.10;1.00;;;;;;5117191;27;20043;-80
2022/04/19 07:06:08;;;;;;;173.90;162.55;;;9.20;1.00;;;;;;5135792;27;20047;-79
2022/04/19 07:08:34;;;;;;;253.85;237.40;;;9.90;1.00;;;;;;5135720;27;20047;-79
2022/04/19 07:11:03;;;;;;;173.65;162.63;;;10.40;1.00;;;;;;5100606;27;20254;-79
2022/04/19 07:13:29;;;;;;;166.65;155.57;;;9.50;1.00;;;;;;5117897;27;20047;-79
2022/04/19 07:15:55;;;;;;;201.52;188.50;;;9.60;1.00;;;;;;5135074;27;20100;-79
2022/04/19 07:18:24;;;;;;;198.05;184.25;;;9.70;1.00;;;;;;5136317;27;20054;-79
2022/04/19 07:29:12;;;;;;;172.75;161.43;;;10.80;1.00;;;;;;5117638;27;20051;-80
2022/04/19 07:31:40;;;;;;;56.35;52.33;;;13.10;99.90;;;;;;5117303;27;20405;-80
2022/04/19 07:34:06;;;;;;;120.10;112.97;;;15.40;99.90;;;;;;5135742;27;20150;-80
2022/04/19 07:36:35;;;;;;;125.32;117.25;;;16.60;99.90;;;;;;5115271;27;20050;-81
2022/04/19 07:39:03;;;;;;;164.20;154.05;;;18.00;99.90;;;;;;5134720;27;20078;-80
2022/04/19 07:41:30;;;;;;;102.65;96.22;;;19.10;99.90;;;;;;5135482;27;20047;-81
2022/04/19 07:43:56;;;;;;;106.78;100.00;;;20.20;99.90;;;;;;5135032;27;20133;-81
2022/04/19 07:46:22;;;;;;;129.43;121.50;;;21.10;99.90;;;;;;5135157;27;20046;-80
2022/04/19 07:48:49;;;;;;;232.23;218.10;;;21.90;99.90;;;;;;5134700;27;20039;-80
2022/04/19 07:51:15;;;;;;;124.22;116.10;;;22.40;99.90;;;;;;5116066;27;20054;-80
2022/04/19 07:53:41;;;;;;;136.77;128.23;;;22.90;99.90;;;;;;5099320;27;20043;-82
2022/04/19 07:56:07;;;;;;;128.55;120.57;;;23.20;99.90;;;;;;5117201;27;20091;-81
2022/04/19 07:58:33;;;;;;;171.35;161.13;;;23.50;99.90;;;;;;5135246;27;20143;-81
2022/04/19 08:01:00;;;;;;;88.45;82.47;;;22.50;99.90;;;;;;5099639;27;20391;-81
2022/04/19 08:03:26;;;;;;;96.40;90.20;;;23.50;99.90;;;;;;5083244;27;20072;-80
2022/04/19 08:05:52;;;;;;;36.03;33.20;;;24.30;99.90;;;;;;5133864;27;20392;-80
2022/04/19 08:08:21;;;;;;;102.15;95.60;;;24.50;99.90;;;;;;5134772;27;20050;-82
2022/04/19 08:10:47;;;;;;;155.15;145.68;;;25.00;99.90;;;;;;5116079;27;20051;-81
2022/04/19 08:13:13;;;;;;;172.27;162.02;;;25.60;99.90;;;;;;5100262;27;20437;-82
2022/04/19 08:15:39;;;;;;;80.88;75.57;;;25.70;99.90;;;;;;5116302;27;20055;-81
2022/04/19 08:18:05;;;;;;;212.20;199.57;;;25.50;99.90;;;;;;5135015;27;20448;-81
2022/04/19 08:20:31;;;;;;;163.75;154.23;;;25.90;99.90;;;;;;5116236;27;20047;-81
2022/04/19 08:22:57;;;;;;;133.05;124.82;;;26.10;99.90;;;;;;5134589;27;20037;-80
2022/04/19 08:25:23;;;;;;;260.45;245.30;;;26.30;99.90;;;;;;5116788;27;20134;-82
2022/04/19 08:27:49;;;;;;;218.88;206.13;;;26.60;99.90;;;;;;5134550;27;20070;-81
2022/04/19 08:30:19;;;;;;;102.75;96.60;;;27.10;99.90;;;;;;5116879;27;20050;-82
2022/04/19 08:32:47;;;;;;;154.13;145.45;;;27.40;99.90;;;;;;5116216;27;20495;-81
2022/04/19 08:35:14;;;;;;;182.75;171.93;;;27.30;99.90;;;;;;5116151;27;20122;-85
2022/04/19 08:37:40;;;;;;;134.20;125.75;;;27.00;99.90;;;;;;5132654;27;20054;-82
2022/04/19 08:40:09;;;;;;;71.07;66.63;;;27.00;99.90;;;;;;5115725;27;20065;-81
2022/04/19 08:42:37;;;;;;;278.77;262.73;;;27.40;99.90;;;;;;5134674;27;20047;-83
2022/04/19 08:45:04;;;;;;;157.75;148.60;;;27.70;99.90;;;;;;5134482;27;20046;-82
2022/04/19 08:47:31;;;;;;;31.10;28.65;;;27.40;99.90;;;;;;5134505;27;20047;-81
2022/04/19 08:50:00;;;;;;;51.58;48.05;;;28.60;99.90;;;;;;5098886;27;20148;-81
2022/04/19 08:52:26;;;;;;;63.25;59.00;;;28.90;99.90;;;;;;5134264;27;20140;-82
2022/04/19 08:57:38;;;;;;;69.97;65.72;;;27.80;99.90;;;;;;5133809;27;20112;-84
2022/04/19 09:00:06;;;;;;;28.90;26.77;;;28.40;99.90;;;;;;5099145;27;20059;-83
2022/04/19 09:02:34;;;;;;;41.22;38.22;;;28.30;99.90;;;;;;5115498;27;20364;-82
2022/04/19 09:05:16;;;;;;;73.30;68.93;;;28.10;99.90;;;;;;5133661;27;20126;-82
2022/04/19 09:07:43;;;;;;;97.95;91.93;;;27.50;99.90;;;;;;5098737;27;20101;-81
2022/04/19 09:10:11;;;;;;;25.02;23.00;;;28.30;99.90;;;;;;5098628;27;20050;-81
2022/04/19 09:12:38;;;;;;;107.78;101.75;;;28.30;99.90;;;;;;5115451;27;20043;-81
2022/04/19 09:15:08;;;;;;;56.13;52.55;;;28.00;99.90;;;;;;5115012;27;20058;-83
2022/04/19 09:17:36;;;;;;;108.50;102.32;;;27.90;99.90;;;;;;5098408;27;20058;-83
2022/04/19 09:20:09;;;;;;;200.80;189.80;;;27.90;99.90;;;;;;5133406;27;20047;-82
2022/04/19 09:22:37;;;;;;;40.65;38.03;;;28.00;99.90;;;;;;5132481;27;20122;-83
2022/04/19 09:25:25;;;;;;;39.85;37.40;;;28.60;99.90;;;;;;5098224;27;20051;-82
2022/04/19 09:27:54;;;;;;;42.88;40.10;;;28.70;99.90;;;;;;5114769;27;20049;-86
2022/04/19 09:30:36;;;;;;;83.28;78.50;;;29.20;99.90;;;;;;5131643;27;20138;-83
2022/04/19 09:33:08;;;;;;;68.57;64.78;;;29.20;99.90;;;;;;5133102;27;20042;-82
2022/04/19 09:35:48;;;;;;;59.92;56.40;;;29.10;99.90;;;;;;5132329;27;20505;-81
2022/04/19 09:38:14;;;;;;;71.53;67.53;;;29.10;99.90;;;;;;5132712;27;20126;-81
2022/04/19 09:40:41;;;;;;;69.95;66.05;;;28.80;99.90;;;;;;5133117;27;20522;-81
2022/04/19 09:43:21;;;;;;;40.22;37.80;;;28.60;99.90;;;;;;5114455;27;20483;-81
2022/04/19 09:46:03;;;;;;;93.78;88.63;;;28.30;99.90;;;;;;5114740;27;20042;-82
2022/04/19 09:48:36;;;;;;;85.85;81.18;;;26.40;99.90;;;;;;5133450;27;20054;-81
2022/04/19 09:51:12;;;;;;;84.97;80.32;;;26.90;99.90;;;;;;5132624;27;20514;-82
2022/04/19 09:53:48;;;;;;;134.23;127.05;;;26.80;99.90;;;;;;5114811;27;20062;-83
2022/04/19 09:56:16;;;;;;;111.63;105.38;;;27.30;99.90;;;;;;5114504;27;20331;-81
2022/04/19 09:58:44;;;;;;;119.57;112.93;;;26.90;99.90;;;;;;5133091;27;20387;-81
2022/04/19 10:09:24;;;;;;;116.88;110.38;;;27.60;99.90;;;;;;5114503;27;20090;-82
2022/04/19 10:11:51;;;;;;;124.13;117.32;;;28.10;99.90;;;;;;5132714;27;20077;-81
2022/04/19 10:14:18;;;;;;;113.27;107.17;;;27.50;99.90;;;;;;5114379;27;20065;-82
2022/04/19 10:16:45;;;;;;;62.88;58.92;;;27.80;99.90;;;;;;5129726;27;20051;-85
2022/04/19 10:19:12;;;;;;;19.30;17.48;;;28.20;99.90;;;;;;5131644;27;20464;-82
2022/04/19 10:21:43;;;;;;;86.32;81.40;;;27.80;99.90;;;;;;5131936;27;20445;-82
2022/04/19 10:24:12;;;;;;;46.97;44.15;;;28.40;99.90;;;;;;5114352;27;20064;-82
2022/04/19 10:26:48;;;;;;;87.72;82.80;;;29.30;99.90;;;;;;5114059;27;20073;-82
2022/04/19 10:29:15;;;;;;;111.35;105.22;;;29.50;99.90;;;;;;5114210;27;20039;-82
2022/04/19 10:31:52;;;;;;;92.30;87.25;;;29.70;99.90;;;;;;5097045;28;20043;-83
2022/04/19 10:34:24;;;;;;;63.40;59.43;;;29.50;99.90;;;;;;5132275;27;20402;-83
2022/04/19 10:36:54;;;;;;;62.45;58.75;;;27.50;99.90;;;;;;5132349;27;20043;-81
2022/04/19 10:39:22;;;;;;;85.88;80.82;;;28.50;99.90;;;;;;5113814;27;20046;-82
2022/04/19 10:42:05;;;;;;;39.25;36.85;;;27.80;99.90;;;;;;5114436;27;20112;-81
2022/04/19 10:44:43;;;;;;;122.43;115.43;;;27.60;99.90;;;;;;5114319;28;20498;-82
2022/04/19 10:47:13;;;;;;;58.03;54.63;;;27.60;99.90;;;;;;5096706;28;20058;-81
2022/04/19 10:50:06;;;;;;;62.95;59.20;;;27.30;99.90;;;;;;5094913;28;20070;-82
2022/04/19 10:52:40;;;;;;;76.93;72.57;;;28.30;99.90;;;;;;5132293;28;20328;-82
2022/04/19 10:55:26;;;;;;;30.80;28.67;;;28.20;99.90;;;;;;5113335;28;20500;-82
2022/04/19 10:58:17;;;;;;;69.68;65.57;;;28.10;99.90;;;;;;5109306;28;20134;-82
2022/04/19 11:00:54;;;;;;;73.50;69.38;;;28.40;99.90;;;;;;5076538;28;20089;-84
2022/04/19 11:03:26;;;;;;;55.40;52.15;;;29.20;99.90;;;;;;5109251;28;20634;-83
2022/04/19 11:05:53;;;;;;;47.63;44.38;;;28.60;99.90;;;;;;5110562;28;20062;-81
2022/04/19 11:08:26;;;;;;;13.25;11.85;;;27.20;99.90;;;;;;5092691;28;20047;-82
2022/04/19 11:10:52;;;;;;;76.30;71.28;;;26.40;99.90;;;;;;5105281;28;20050;-82
2022/04/19 11:13:21;;;;;;;11.85;10.65;;;27.30;99.90;;;;;;5092911;28;20040;-82
2022/04/19 11:15:59;;;;;;;24.17;22.10;;;27.80;99.90;;;;;;5111635;28;20501;-81
2022/04/19 11:18:27;;;;;;;17.02;15.63;;;28.00;99.90;;;;;;5075650;28;20432;-83
2022/04/19 11:21:05;;;;;;;27.10;25.20;;;28.40;99.90;;;;;;5092736;28;20101;-82
2022/04/19 11:23:51;;;;;;;7.75;6.72;;;28.60;99.90;;;;;;5093114;28;20274;-82
2022/04/19 11:26:40;;;;;;;27.05;25.17;;;29.10;99.90;;;;;;5092795;28;20562;-83
2022/04/19 11:29:09;;;;;;;34.60;32.17;;;28.60;99.90;;;;;;5077316;28;20055;-82
2022/04/19 11:31:44;;;;;;;11.95;10.75;;;29.10;99.90;;;;;;5093056;28;20043;-81
2022/04/19 11:34:14;;;;;;;14.07;12.75;;;28.70;99.90;;;;;;5092589;28;20122;-82
2022/04/19 11:36:40;;;;;;;15.75;14.35;;;28.30;99.90;;;;;;5092849;28;20048;-82
2022/04/19 11:39:06;;;;;;;15.68;14.25;;;28.00;99.90;;;;;;5076498;28;20146;-82
2022/04/19 11:47:02;;;;;;;34.53;32.13;;;28.00;99.90;;;;;;5114658;28;20047;-82
2022/04/19 11:49:34;;;;;;;18.48;16.77;;;28.40;99.90;;;;;;5113257;28;20051;-81
2022/04/19 11:52:13;;;;;;;14.90;13.60;;;28.60;99.90;;;;;;5096418;28;20487;-83
2022/04/19 11:54:39;;;;;;;21.58;19.83;;;28.60;99.90;;;;;;5096830;28;20052;-82
2022/04/19 11:57:10;;;;;;;12.57;11.40;;;28.60;99.90;;;;;;5074908;28;20048;-86
2022/04/19 11:59:41;;;;;;;16.48;15.02;;;27.60;99.90;;;;;;5075510;28;20059;-83
2022/04/19 12:02:18;;;;;;;17.77;16.27;;;27.30;99.90;;;;;;5076077;28;20177;-82
2022/04/19 12:04:54;;;;;;;21.38;19.77;;;27.40;99.90;;;;;;5076474;28;20044;-81
2022/04/19 12:07:21;;;;;;;14.10;12.75;;;26.90;99.90;;;;;;5076269;28;20044;-82
2022/04/19 12:09:51;;;;;;;34.67;31.77;;;27.30;99.90;;;;;;5076745;28;20055;-82
2022/04/19 12:12:19;;;;;;;16.67;13.88;;;26.80;99.90;;;;;;5094669;28;20036;-83
2022/04/19 12:14:52;;;;;;;22.52;20.73;;;25.30;99.90;;;;;;5077086;28;20052;-82
2022/04/19 12:17:20;;;;;;;23.35;21.60;;;24.60;99.90;;;;;;5094516;28;20109;-82
2022/04/19 12:19:46;;;;;;;;;;;23.70;99.90;;;;;;5076666;28;20127;-80
2022/04/19 12:22:19;;;;;;;18.80;17.27;;;23.00;99.90;;;;;;5058993;28;20031;-81
2022/04/19 12:24:55;;;;;;;30.67;28.75;;;22.30;99.90;;;;;;5093473;28;20484;-80
2022/04/19 12:27:37;;;;;;;24.00;22.15;;;22.30;99.90;;;;;;5075538;28;20108;-81
2022/04/19 12:30:12;;;;;;;27.92;25.85;;;22.00;99.90;;;;;;5059904;28;20044;-82
2022/04/19 12:32:57;;;;;;;27.92;25.27;;;21.50;99.90;;;;;;5059265;28;20397;-81
2022/04/19 12:35:34;;;;;;;28.90;26.80;;;20.80;99.90;;;;;;5058860;28;20070;-82
2022/04/19 12:38:05;;;;;;;33.28;31.08;;;20.50;99.90;;;;;;5058426;28;20056;-82
2022/04/19 12:40:31;;;;;;;13.32;12.13;;;20.40;99.90;;;;;;5075001;28;20527;-82
2022/04/19 12:42:57;;;;;;;214.23;199.68;;;20.30;99.90;;;;;;5059200;28;20060;-82
2022/04/19 12:45:29;;;;;;;38.85;36.28;;;20.30;99.90;;;;;;5074454;28;20480;-83
2022/04/19 12:47:58;;;;;;;47.15;44.35;;;20.20;99.90;;;;;;5043063;28;20055;-82
2022/04/19 12:50:24;;;;;;;75.72;71.22;;;19.80;99.90;;;;;;5058429;28;20365;-81
2022/04/19 12:52:49;;;;;;;100.47;93.72;;;19.70;99.90;;;;;;5058443;28;20048;-81
2022/04/19 12:55:15;;;;;;;65.13;61.15;;;20.30;99.90;;;;;;5093053;28;20051;-82
2022/04/19 12:57:45;;;;;;;34.75;32.42;;;19.50;99.90;;;;;;5087001;27;20055;-83
2022/04/19 13:00:12;;;;;;;79.38;74.22;;;19.50;99.90;;;;;;5116403;27;20078;-82
2022/04/19 13:02:40;;;;;;;59.08;55.50;;;19.40;99.90;;;;;;5134025;27;20080;-82
2022/04/19 13:05:06;;;;;;;63.30;59.55;;;19.40;99.90;;;;;;5134133;27;20499;-82
2022/04/19 13:13:04;;;;;;;64.63;60.72;;;19.20;99.90;;;;;;5134436;27;20142;-82
2022/04/19 13:15:35;;;;;;;53.47;50.30;;;19.20;99.90;;;;;;5115412;27;20051;-82
2022/04/19 13:18:01;;;;;;;64.65;60.78;;;19.10;99.90;;;;;;5133915;27;20092;-82